首页
METAR-TAF:

METAR-TAF

机场 :

蓬塔阿雷纳斯, 智利

纬度: 53-00S, 经度: 070-51W, 海拔: 37米

当前天气观测

该预报发布于31分钟前的15:00 UTC
风速25节,风向西转西南
温度 6°C
湿度 61%
气压 993 hPa
能见度10公里或以上
少量云层高于4300英尺

METAR: SCCI 161500Z 24025KT 9999 FEW043 06/M01 Q0993 NOSIG

时间: 12:31 (15:31 UTC)

预报

该预报发布于4小时和46分钟前的10:45 UTC
预报有效从16日的 12点(UTC)到 17日的 12点(UTC)
风速20节,风向西转西南,有时为30节阵风
能见度10公里或以上
散云层高于4000英尺
短暂存在
从 16日的 12点(UTC)到 16日的 18点(UTC)
能見度: 8000
少量云层高于1500英尺
多云层高于3000英尺
小阵雨
成为
从 16日的 18点(UTC)到 16日的 20点(UTC)
风速15节,风向西转西北
成为
从 17日的 00点(UTC)到 17日的 02点(UTC)
风速15节,风向,有时为27节阵风
能見度: 9000
散云层高于3000英尺
成为
从 17日的 09点(UTC)到 17日的 11点(UTC)
风速23节,风向西,有时为35节阵风

TAF: SCCI 161045Z 1612/1712 25020G30KT 9999 SCT040 TN00/1712Z TX07/1618Z TEMPO 1612/1618 8000 -SHRA FEW015 BKN030 BECMG 1618/1620 30015KT BECMG 1700/1702 35015G27KT 9000 SCT030 BECMG 1709/1711 27023G35KT

超过4000个机场的气象观测和天气预报(METAR&TAF报告)。

可查询的气象台以黄色和红色小点在地图上表示。

将鼠标移到小点上方,可查看气象台名称。

然后点击查看天气观测和预报。

如需切换地图:点击带黑十字的绿色按钮放大地图;点击带横线的绿色按钮缩小地图;或者点击绿色箭头查看邻近地区的地图。


METAR-TAF: